KIIB

Independence Municipal Airport

Independence, Iowa, USA
METAR KIIB 170215Z AUTO 06009KT 10SM CLR 01/M04 A2998 RMK AO2 T00051036
Observed Flight Rules
Dec-17 @ 02:15 UTC (12 minutes ago) Visual Flight Rules
Wind Visibility Clouds
60° at 9 knots 10 miles
  • Clear skies
Temperatures Readings
Current 1°C / 34°F
Dewpoint -4°C / 25°F
Humidity 70%
Altimeter 29.98" Hg
Pressure 1015 hPa
Elevation 298
METAR KIIB 170215Z AUTO 06009KT 10SM CLR 01/M04 A2998 RMK AO2 T00051036
Observed Flight Rules
Dec-17 @ 02:15 UTC
(12 minutes ago)
VFR
Wind Visibility
60° at 9 knots 10 miles
Clouds
  • Clear skies
Temperature Dewpoint
1°C / 34°F -4°C / 25°F
Humidity Altimeter Pressure
70% 29.98" Hg 1015 hPa